Airfield :
LOGIN :

Register | Disclaimer

   EN    FR    IT 

 










Legend :    VFR   Marginal VFR   IFR   Intensive IFR   Very Intensive IFR
Visi :
Ceiling :
>= 8 km
>= 3000ft
5 to 8 km
1000 to 3000 ft
1500m to 5 km
500 to 1000 ft
800 to 1500m
200 to 500 ft
< 800m
< 200 ft
Symbols :   Thunderstorms  Fog  Heavy snow  Heavy precipitations  Wind > 20 kt
SIGMETs :     Misc.  Thunderstorms  Icing  Turbulence  Mountain Waves  Volcanic Ashes







- Airport Elevation : 55 ft
- IATA code : DSA
- Download approach charts


EGCN - Robin Hood Doncaster Sheffield

CURRENT METAR :
  • 262320Z 13004KT CAVOK 14/10 Q1014

EXPIRED METARs :
  • 262250Z 13005KT CAVOK 14/09 Q1014
  • 262220Z 12005KT 090V150 CAVOK 14/10 Q1014
  • 262150Z 12007KT 080V150 CAVOK 14/09 Q1014
  • 262120Z 08004KT 040V110 CAVOK 15/09 Q1014
  • 262050Z 10005KT 060V150 CAVOK 15/08 Q1014

TAF TAF EGCN
Valid from the 27 at 00:00 until the 28 at 00:00 UTC


262303Z 2700/2724 10006KT 9999 SCT040
TEMPO 2703/2710 7000 -RA
TEMPO 2710/2724 4500 RA BKN012
PROB30
TEMPO 2712/2724 +SHRA BKN008
No reported NOTAMs for that airfield.



MET'MAP, your aeronautical weather chart ! - Copyright ORBIFLY December 2007 - Disclaimer

ORBIFLY MET'MAP TEAM :

Programming & Development : Alexandra Zaïnal
Concept & Development : Baudouin d'Aumeries
Co-Development & Prog : Marc-Olivier Méhu
Technical & hardware support : Manuel Goepfert

Contact : metmap@orbifly.com




SOURCES & CREDITS :

   NOAA